sensor_id;sensor_type;location;lat;lon;timestamp;pressure;altitude;pressure_sealevel;temperature;humidity
61113;BME280;47184;57.998;56.184;2022-11-12T00:02:07;99440.91;;;7.70;87.77
61113;BME280;47184;57.998;56.184;2022-11-12T00:04:51;99452.41;;;7.69;87.26
61113;BME280;47184;57.998;56.184;2022-11-12T00:07:35;99447.31;;;7.67;87.85
61113;BME280;47184;57.998;56.184;2022-11-12T00:10:20;99435.47;;;7.63;87.77
61113;BME280;47184;57.998;56.184;2022-11-12T00:13:04;99438.25;;;7.62;87.82
61113;BME280;47184;57.998;56.184;2022-11-12T00:15:49;99440.56;;;7.65;87.58
61113;BME280;47184;57.998;56.184;2022-11-12T00:18:33;99437.63;;;7.68;87.27
61113;BME280;47184;57.998;56.184;2022-11-12T00:21:17;99437.63;;;7.68;87.73
61113;BME280;47184;57.998;56.184;2022-11-12T00:24:02;99432.50;;;7.66;87.53
61113;BME280;47184;57.998;56.184;2022-11-12T00:26:46;99425.63;;;7.65;87.74
61113;BME280;47184;57.998;56.184;2022-11-12T00:29:30;99429.88;;;7.66;87.53
61113;BME280;47184;57.998;56.184;2022-11-12T00:32:15;99425.78;;;7.64;87.62
61113;BME280;47184;57.998;56.184;2022-11-12T00:34:59;99424.13;;;7.63;87.25
61113;BME280;47184;57.998;56.184;2022-11-12T00:37:43;99416.91;;;7.65;88.06
61113;BME280;47184;57.998;56.184;2022-11-12T00:40:28;99419.53;;;7.65;87.52
61113;BME280;47184;57.998;56.184;2022-11-12T00:43:12;99415.09;;;7.65;87.42
61113;BME280;47184;57.998;56.184;2022-11-12T00:45:56;99421.50;;;7.63;87.46
61113;BME280;47184;57.998;56.184;2022-11-12T00:48:41;99412.25;;;7.59;87.30
61113;BME280;47184;57.998;56.184;2022-11-12T00:51:25;99417.53;;;7.59;87.29
61113;BME280;47184;57.998;56.184;2022-11-12T00:54:09;99403.91;;;7.55;87.29
61113;BME280;47184;57.998;56.184;2022-11-12T00:56:54;99403.81;;;7.39;87.90
61113;BME280;47184;57.998;56.184;2022-11-12T00:59:38;99402.13;;;7.38;88.00
61113;BME280;47184;57.998;56.184;2022-11-12T01:02:23;99401.84;;;7.41;88.17
61113;BME280;47184;57.998;56.184;2022-11-12T01:05:07;99399.72;;;7.44;87.86
61113;BME280;47184;57.998;56.184;2022-11-12T01:07:52;99397.75;;;7.47;87.90
61113;BME280;47184;57.998;56.184;2022-11-12T01:10:36;99395.00;;;7.48;87.26
61113;BME280;47184;57.998;56.184;2022-11-12T01:13:21;99392.38;;;7.48;88.03
61113;BME280;47184;57.998;56.184;2022-11-12T01:16:06;99390.38;;;7.50;87.14
61113;BME280;47184;57.998;56.184;2022-11-12T01:18:51;99391.16;;;7.42;87.36
61113;BME280;47184;57.998;56.184;2022-11-12T01:21:37;99378.03;;;7.42;87.36
61113;BME280;47184;57.998;56.184;2022-11-12T01:24:22;99377.88;;;7.44;87.39
61113;BME280;47184;57.998;56.184;2022-11-12T01:27:07;99380.78;;;7.33;87.42
61113;BME280;47184;57.998;56.184;2022-11-12T01:29:51;99371.31;;;7.40;87.35
61113;BME280;47184;57.998;56.184;2022-11-12T01:32:36;99369.03;;;7.45;87.63
61113;BME280;47184;57.998;56.184;2022-11-12T01:35:21;99365.28;;;7.48;87.80
61113;BME280;47184;57.998;56.184;2022-11-12T01:38:05;99362.25;;;7.42;87.59
61113;BME280;47184;57.998;56.184;2022-11-12T01:40:49;99361.97;;;7.45;87.78
61113;BME280;47184;57.998;56.184;2022-11-12T01:43:35;99358.50;;;7.45;87.05
61113;BME280;47184;57.998;56.184;2022-11-12T01:46:21;99346.97;;;7.38;87.48
61113;BME280;47184;57.998;56.184;2022-11-12T01:49:10;99352.91;;;7.40;87.50
61113;BME280;47184;57.998;56.184;2022-11-12T01:51:57;99344.56;;;7.44;87.22
61113;BME280;47184;57.998;56.184;2022-11-12T01:54:45;99337.66;;;7.43;87.25
61113;BME280;47184;57.998;56.184;2022-11-12T01:57:35;99334.38;;;7.41;87.04
61113;BME280;47184;57.998;56.184;2022-11-12T02:00:21;99333.72;;;7.39;87.15
61113;BME280;47184;57.998;56.184;2022-11-12T02:03:06;99336.16;;;7.41;87.25
61113;BME280;47184;57.998;56.184;2022-11-12T02:05:58;99332.91;;;7.39;87.66
61113;BME280;47184;57.998;56.184;2022-11-12T02:08:42;99341.69;;;7.30;87.61
61113;BME280;47184;57.998;56.184;2022-11-12T02:11:27;99336.25;;;7.23;87.47
61113;BME280;47184;57.998;56.184;2022-11-12T02:14:11;99322.81;;;7.34;87.73
61113;BME280;47184;57.998;56.184;2022-11-12T02:16:56;99322.03;;;7.42;87.61
61113;BME280;47184;57.998;56.184;2022-11-12T02:19:41;99317.91;;;7.31;87.88
61113;BME280;47184;57.998;56.184;2022-11-12T02:22:26;99317.09;;;7.31;87.74
61113;BME280;47184;57.998;56.184;2022-11-12T02:25:11;99312.44;;;7.25;87.67
61113;BME280;47184;57.998;56.184;2022-11-12T02:27:57;99315.75;;;7.27;87.38
61113;BME280;47184;57.998;56.184;2022-11-12T02:30:45;99310.50;;;7.27;87.33
61113;BME280;47184;57.998;56.184;2022-11-12T02:33:29;99309.53;;;7.28;87.43
61113;BME280;47184;57.998;56.184;2022-11-12T02:36:13;99319.75;;;7.13;87.79
61113;BME280;47184;57.998;56.184;2022-11-12T02:38:58;99316.50;;;7.11;88.14
61113;BME280;47184;57.998;56.184;2022-11-12T02:41:42;99317.50;;;6.92;88.36
61113;BME280;47184;57.998;56.184;2022-11-12T02:44:27;99308.19;;;6.72;89.25
61113;BME280;47184;57.998;56.184;2022-11-12T02:47:11;99303.63;;;6.74;89.39
61113;BME280;47184;57.998;56.184;2022-11-12T02:49:55;99295.38;;;6.68;89.83
61113;BME280;47184;57.998;56.184;2022-11-12T02:52:39;99304.75;;;6.71;89.74
61113;BME280;47184;57.998;56.184;2022-11-12T02:55:24;99296.72;;;6.73;89.73
61113;BME280;47184;57.998;56.184;2022-11-12T02:58:09;99302.41;;;6.86;89.38
61113;BME280;47184;57.998;56.184;2022-11-12T03:00:53;99289.41;;;6.84;89.39
61113;BME280;47184;57.998;56.184;2022-11-12T03:03:38;99302.94;;;6.72;89.33
61113;BME280;47184;57.998;56.184;2022-11-12T03:06:22;99295.41;;;6.77;89.33
61113;BME280;47184;57.998;56.184;2022-11-12T03:09:06;99282.78;;;6.72;89.40
61113;BME280;47184;57.998;56.184;2022-11-12T03:11:51;99279.28;;;6.63;89.57
61113;BME280;47184;57.998;56.184;2022-11-12T03:14:35;99277.28;;;6.57;90.06
61113;BME280;47184;57.998;56.184;2022-11-12T03:17:19;99272.47;;;6.53;90.15
61113;BME280;47184;57.998;56.184;2022-11-12T03:20:04;99274.94;;;6.54;90.48
61113;BME280;47184;57.998;56.184;2022-11-12T03:22:56;99274.19;;;6.62;90.04
61113;BME280;47184;57.998;56.184;2022-11-12T03:25:41;99268.13;;;6.61;89.92
61113;BME280;47184;57.998;56.184;2022-11-12T03:28:25;99262.88;;;6.61;90.05
61113;BME280;47184;57.998;56.184;2022-11-12T03:31:10;99261.06;;;6.62;89.98
61113;BME280;47184;57.998;56.184;2022-11-12T03:33:56;99263.69;;;6.62;89.62
61113;BME280;47184;57.998;56.184;2022-11-12T03:36:40;99260.19;;;6.53;89.88
61113;BME280;47184;57.998;56.184;2022-11-12T03:39:25;99255.75;;;6.54;89.58
61113;BME280;47184;57.998;56.184;2022-11-12T03:42:10;99251.22;;;6.64;89.72
61113;BME280;47184;57.998;56.184;2022-11-12T03:44:54;99240.69;;;6.56;89.92
61113;BME280;47184;57.998;56.184;2022-11-12T03:47:42;99239.88;;;6.55;89.54
61113;BME280;47184;57.998;56.184;2022-11-12T03:50:27;99244.50;;;6.61;89.46
61113;BME280;47184;57.998;56.184;2022-11-12T03:53:12;99236.97;;;6.40;89.88
61113;BME280;47184;57.998;56.184;2022-11-12T03:55:57;99228.16;;;6.41;89.91
61113;BME280;47184;57.998;56.184;2022-11-12T03:58:41;99231.88;;;6.39;89.36
61113;BME280;47184;57.998;56.184;2022-11-12T04:01:26;99232.19;;;6.36;89.93
61113;BME280;47184;57.998;56.184;2022-11-12T04:04:10;99219.59;;;6.39;89.94
61113;BME280;47184;57.998;56.184;2022-11-12T04:06:55;99222.78;;;6.51;89.64
61113;BME280;47184;57.998;56.184;2022-11-12T04:09:59;99213.94;;;6.52;89.30
61113;BME280;47184;57.998;56.184;2022-11-12T04:12:43;99206.94;;;6.61;88.96
61113;BME280;47184;57.998;56.184;2022-11-12T04:15:46;99199.25;;;6.33;88.90
61113;BME280;47184;57.998;56.184;2022-11-12T04:18:51;99191.56;;;6.40;89.20
61113;BME280;47184;57.998;56.184;2022-11-12T04:22:05;99165.94;;;6.08;89.28
61113;BME280;47184;57.998;56.184;2022-11-12T04:24:51;99187.94;;;6.33;89.26
61113;BME280;47184;57.998;56.184;2022-11-12T04:27:54;99181.13;;;6.48;88.73
61113;BME280;47184;57.998;56.184;2022-11-12T04:30:38;99181.00;;;6.50;88.44
61113;BME280;47184;57.998;56.184;2022-11-12T04:33:23;99175.41;;;6.53;88.42
61113;BME280;47184;57.998;56.184;2022-11-12T04:36:08;99161.19;;;6.55;88.46
61113;BME280;47184;57.998;56.184;2022-11-12T04:38:52;99152.97;;;6.50;88.46
61113;BME280;47184;57.998;56.184;2022-11-12T04:41:37;99166.53;;;6.45;87.94
61113;BME280;47184;57.998;56.184;2022-11-12T04:44:41;99160.78;;;6.42;88.18
61113;BME280;47184;57.998;56.184;2022-11-12T04:47:47;99150.44;;;6.40;88.58
61113;BME280;47184;57.998;56.184;2022-11-12T04:50:47;99148.44;;;6.34;88.92
61113;BME280;47184;57.998;56.184;2022-11-12T04:53:33;99141.09;;;6.38;88.34
61113;BME280;47184;57.998;56.184;2022-11-12T04:56:17;99127.38;;;6.52;88.16
61113;BME280;47184;57.998;56.184;2022-11-12T04:59:01;99123.69;;;6.63;87.72
61113;BME280;47184;57.998;56.184;2022-11-12T05:01:45;99127.91;;;6.56;87.37
61113;BME280;47184;57.998;56.184;2022-11-12T05:04:30;99107.56;;;6.50;87.33
61113;BME280;47184;57.998;56.184;2022-11-12T05:07:15;99110.28;;;6.40;87.95
61113;BME280;47184;57.998;56.184;2022-11-12T05:09:59;99110.91;;;6.34;88.13
61113;BME280;47184;57.998;56.184;2022-11-12T05:12:43;99096.34;;;6.39;88.18
61113;BME280;47184;57.998;56.184;2022-11-12T05:15:28;99089.31;;;6.40;87.67
61113;BME280;47184;57.998;56.184;2022-11-12T05:18:13;99078.03;;;6.48;87.73
61113;BME280;47184;57.998;56.184;2022-11-12T05:20:57;99084.94;;;6.57;87.54
61113;BME280;47184;57.998;56.184;2022-11-12T05:24:01;99090.38;;;6.55;87.31
61113;BME280;47184;57.998;56.184;2022-11-12T05:26:55;99087.28;;;6.60;86.61
61113;BME280;47184;57.998;56.184;2022-11-12T05:29:40;99096.13;;;6.59;86.60
61113;BME280;47184;57.998;56.184;2022-11-12T05:32:25;99091.56;;;6.35;86.38
61113;BME280;47184;57.998;56.184;2022-11-12T05:35:10;99086.84;;;6.38;86.71
61113;BME280;47184;57.998;56.184;2022-11-12T05:37:57;99093.63;;;6.23;86.45
61113;BME280;47184;57.998;56.184;2022-11-12T05:40:45;99098.53;;;6.18;86.83
61113;BME280;47184;57.998;56.184;2022-11-12T05:43:29;99086.66;;;6.06;86.90
61113;BME280;47184;57.998;56.184;2022-11-12T05:46:17;99079.09;;;6.03;87.07
61113;BME280;47184;57.998;56.184;2022-11-12T05:49:04;99087.59;;;5.79;87.14
61113;BME280;47184;57.998;56.184;2022-11-12T05:51:48;99084.44;;;5.93;87.23
61113;BME280;47184;57.998;56.184;2022-11-12T05:54:34;99070.13;;;6.05;86.64
61113;BME280;47184;57.998;56.184;2022-11-12T05:57:18;99064.19;;;6.03;86.89
61113;BME280;47184;57.998;56.184;2022-11-12T06:00:03;99044.00;;;5.95;86.50
61113;BME280;47184;57.998;56.184;2022-11-12T06:02:47;99047.31;;;5.98;86.65
61113;BME280;47184;57.998;56.184;2022-11-12T06:05:32;99055.69;;;5.83;86.67
61113;BME280;47184;57.998;56.184;2022-11-12T06:08:17;99043.69;;;5.72;87.59
61113;BME280;47184;57.998;56.184;2022-11-12T06:11:01;99036.47;;;5.92;86.67
61113;BME280;47184;57.998;56.184;2022-11-12T06:13:46;99030.53;;;5.90;86.67
61113;BME280;47184;57.998;56.184;2022-11-12T06:16:33;99040.13;;;5.82;86.35
61113;BME280;47184;57.998;56.184;2022-11-12T06:19:18;99030.09;;;5.95;86.60
61113;BME280;47184;57.998;56.184;2022-11-12T06:22:03;99034.78;;;5.91;86.00
61113;BME280;47184;57.998;56.184;2022-11-12T06:24:48;99023.72;;;5.71;86.80
61113;BME280;47184;57.998;56.184;2022-11-12T06:27:32;99018.91;;;5.67;86.57
61113;BME280;47184;57.998;56.184;2022-11-12T06:30:16;99016.03;;;5.78;86.52
61113;BME280;47184;57.998;56.184;2022-11-12T06:33:01;99015.28;;;5.86;86.47
61113;BME280;47184;57.998;56.184;2022-11-12T06:35:45;99014.75;;;5.82;86.29
61113;BME280;47184;57.998;56.184;2022-11-12T06:38:32;99008.16;;;5.96;86.25
61113;BME280;47184;57.998;56.184;2022-11-12T06:41:17;99001.66;;;5.82;86.48
61113;BME280;47184;57.998;56.184;2022-11-12T06:44:02;98999.66;;;5.76;86.25
61113;BME280;47184;57.998;56.184;2022-11-12T06:46:47;98983.38;;;5.90;86.58
61113;BME280;47184;57.998;56.184;2022-11-12T06:49:31;98982.16;;;6.03;86.05
61113;BME280;47184;57.998;56.184;2022-11-12T06:52:16;98978.19;;;5.99;86.07
61113;BME280;47184;57.998;56.184;2022-11-12T06:55:01;98974.69;;;5.90;86.08
61113;BME280;47184;57.998;56.184;2022-11-12T06:57:49;98972.28;;;5.70;86.22
61113;BME280;47184;57.998;56.184;2022-11-12T07:00:34;98961.88;;;5.53;87.52
61113;BME280;47184;57.998;56.184;2022-11-12T07:03:18;98951.03;;;5.47;87.34
61113;BME280;47184;57.998;56.184;2022-11-12T07:06:04;98951.69;;;5.50;88.21
61113;BME280;47184;57.998;56.184;2022-11-12T07:08:48;98945.94;;;5.46;87.89
61113;BME280;47184;57.998;56.184;2022-11-12T07:11:33;98940.75;;;5.54;88.23
61113;BME280;47184;57.998;56.184;2022-11-12T07:14:18;98939.69;;;5.39;88.54
61113;BME280;47184;57.998;56.184;2022-11-12T07:17:02;98924.47;;;5.42;88.80
61113;BME280;47184;57.998;56.184;2022-11-12T07:19:47;98925.81;;;5.46;88.98
61113;BME280;47184;57.998;56.184;2022-11-12T07:22:34;98918.00;;;5.55;88.53
61113;BME280;47184;57.998;56.184;2022-11-12T07:25:19;98913.31;;;5.32;89.02
61113;BME280;47184;57.998;56.184;2022-11-12T07:28:04;98902.59;;;5.43;89.16
61113;BME280;47184;57.998;56.184;2022-11-12T07:30:53;98899.53;;;5.56;88.73
61113;BME280;47184;57.998;56.184;2022-11-12T07:33:38;98894.34;;;5.38;89.24
61113;BME280;47184;57.998;56.184;2022-11-12T07:36:22;98892.28;;;5.50;89.05
61113;BME280;47184;57.998;56.184;2022-11-12T07:39:07;98899.28;;;5.41;89.29
61113;BME280;47184;57.998;56.184;2022-11-12T07:41:51;98894.63;;;5.27;89.97
61113;BME280;47184;57.998;56.184;2022-11-12T07:44:35;98878.72;;;5.55;89.28
61113;BME280;47184;57.998;56.184;2022-11-12T07:47:20;98880.16;;;5.41;89.51
61113;BME280;47184;57.998;56.184;2022-11-12T07:50:04;98866.41;;;5.39;89.61
61113;BME280;47184;57.998;56.184;2022-11-12T07:52:48;98865.59;;;5.46;89.17
61113;BME280;47184;57.998;56.184;2022-11-12T07:55:33;98865.94;;;5.43;89.16
61113;BME280;47184;57.998;56.184;2022-11-12T07:58:17;98860.56;;;5.53;88.98
61113;BME280;47184;57.998;56.184;2022-11-12T08:04:06;98854.69;;;5.25;90.07
61113;BME280;47184;57.998;56.184;2022-11-12T08:06:51;98853.75;;;5.34;89.94
61113;BME280;47184;57.998;56.184;2022-11-12T08:09:35;98839.66;;;5.27;90.57
61113;BME280;47184;57.998;56.184;2022-11-12T08:12:20;98838.19;;;5.25;90.81
61113;BME280;47184;57.998;56.184;2022-11-12T08:15:04;98829.00;;;5.20;90.57
61113;BME280;47184;57.998;56.184;2022-11-12T08:17:48;98821.06;;;5.38;90.41
61113;BME280;47184;57.998;56.184;2022-11-12T08:20:33;98818.31;;;5.40;90.18
61113;BME280;47184;57.998;56.184;2022-11-12T08:23:19;98811.25;;;5.40;90.67
61113;BME280;47184;57.998;56.184;2022-11-12T08:26:04;98810.63;;;5.46;90.23
61113;BME280;47184;57.998;56.184;2022-11-12T08:28:48;98808.91;;;5.29;91.23
61113;BME280;47184;57.998;56.184;2022-11-12T08:31:34;98797.81;;;5.27;90.73
61113;BME280;47184;57.998;56.184;2022-11-12T08:34:19;98793.75;;;5.41;90.82
61113;BME280;47184;57.998;56.184;2022-11-12T08:37:03;98789.81;;;5.37;90.72
61113;BME280;47184;57.998;56.184;2022-11-12T08:39:49;98795.66;;;5.22;91.67
61113;BME280;47184;57.998;56.184;2022-11-12T08:42:33;98784.78;;;5.09;91.78
61113;BME280;47184;57.998;56.184;2022-11-12T08:45:18;98768.63;;;5.22;91.96
61113;BME280;47184;57.998;56.184;2022-11-12T08:48:03;98771.03;;;5.07;92.50
61113;BME280;47184;57.998;56.184;2022-11-12T08:50:50;98759.63;;;5.16;92.11
61113;BME280;47184;57.998;56.184;2022-11-12T08:54:00;98755.69;;;5.12;91.95
61113;BME280;47184;57.998;56.184;2022-11-12T08:56:45;98748.63;;;5.05;92.66
61113;BME280;47184;57.998;56.184;2022-11-12T08:59:29;98737.06;;;5.15;92.03
61113;BME280;47184;57.998;56.184;2022-11-12T09:02:34;98737.59;;;5.27;91.74
61113;BME280;47184;57.998;56.184;2022-11-12T09:05:18;98735.06;;;5.09;91.99
61113;BME280;47184;57.998;56.184;2022-11-12T09:08:04;98728.06;;;5.18;91.96
61113;BME280;47184;57.998;56.184;2022-11-12T09:10:52;98719.25;;;5.19;91.44
61113;BME280;47184;57.998;56.184;2022-11-12T09:13:36;98721.78;;;4.94;91.56
61113;BME280;47184;57.998;56.184;2022-11-12T09:16:21;98718.97;;;4.96;92.10
61113;BME280;47184;57.998;56.184;2022-11-12T09:19:10;98715.50;;;4.87;92.05
61113;BME280;47184;57.998;56.184;2022-11-12T09:21:54;98694.59;;;4.87;92.75
61113;BME280;47184;57.998;56.184;2022-11-12T09:24:39;98687.28;;;4.65;92.60
61113;BME280;47184;57.998;56.184;2022-11-12T09:27:25;98682.59;;;4.77;92.83
61113;BME280;47184;57.998;56.184;2022-11-12T09:30:10;98673.66;;;4.87;92.92
61113;BME280;47184;57.998;56.184;2022-11-12T09:32:57;98672.13;;;4.77;93.50
61113;BME280;47184;57.998;56.184;2022-11-12T09:35:42;98669.41;;;4.86;92.60
61113;BME280;47184;57.998;56.184;2022-11-12T09:38:30;98670.03;;;4.80;92.80
61113;BME280;47184;57.998;56.184;2022-11-12T09:41:19;98670.59;;;5.00;92.49
61113;BME280;47184;57.998;56.184;2022-11-12T09:44:10;98656.09;;;4.71;93.58
61113;BME280;47184;57.998;56.184;2022-11-12T09:53:10;98650.22;;;4.69;93.43
61113;BME280;47184;57.998;56.184;2022-11-12T09:55:57;98626.50;;;4.63;93.11
61113;BME280;47184;57.998;56.184;2022-11-12T09:58:42;98622.59;;;4.67;93.53
61113;BME280;47184;57.998;56.184;2022-11-12T10:01:36;98615.56;;;4.67;93.60
61113;BME280;47184;57.998;56.184;2022-11-12T10:10:16;98601.09;;;4.47;94.04
61113;BME280;47184;57.998;56.184;2022-11-12T10:21:50;98587.16;;;4.38;93.98
61113;BME280;47184;57.998;56.184;2022-11-12T10:24:38;98572.00;;;4.42;94.23
61113;BME280;47184;57.998;56.184;2022-11-12T10:27:26;98565.50;;;4.54;93.82
61113;BME280;47184;57.998;56.184;2022-11-12T10:30:18;98565.31;;;4.47;93.91
61113;BME280;47184;57.998;56.184;2022-11-12T10:33:03;98559.63;;;4.52;93.48
61113;BME280;47184;57.998;56.184;2022-11-12T10:35:47;98550.09;;;4.43;93.04
61113;BME280;47184;57.998;56.184;2022-11-12T10:38:32;98557.28;;;4.33;94.08
61113;BME280;47184;57.998;56.184;2022-11-12T10:41:19;98537.28;;;4.23;93.69
61113;BME280;47184;57.998;56.184;2022-11-12T10:44:09;98549.72;;;4.30;93.53
61113;BME280;47184;57.998;56.184;2022-11-12T10:53:06;98533.06;;;4.31;93.72
61113;BME280;47184;57.998;56.184;2022-11-12T10:55:58;98533.72;;;4.25;94.10
61113;BME280;47184;57.998;56.184;2022-11-12T10:59:01;98517.63;;;4.45;93.15
61113;BME280;47184;57.998;56.184;2022-11-12T11:01:54;98510.63;;;4.54;92.86
61113;BME280;47184;57.998;56.184;2022-11-12T11:04:39;98519.06;;;4.40;93.37
61113;BME280;47184;57.998;56.184;2022-11-12T11:07:29;98508.22;;;4.27;93.75
61113;BME280;47184;57.998;56.184;2022-11-12T11:10:27;98504.34;;;4.39;93.74
61113;BME280;47184;57.998;56.184;2022-11-12T11:13:22;98501.34;;;4.17;94.20
61113;BME280;47184;57.998;56.184;2022-11-12T11:16:13;98509.31;;;4.16;93.68
61113;BME280;47184;57.998;56.184;2022-11-12T11:19:04;98484.44;;;4.38;93.13
61113;BME280;47184;57.998;56.184;2022-11-12T11:30:43;98475.09;;;4.27;93.70
61113;BME280;47184;57.998;56.184;2022-11-12T11:48:09;98448.88;;;4.03;93.91
61113;BME280;47184;57.998;56.184;2022-11-12T11:51:58;98451.69;;;4.09;93.75
61113;BME280;47184;57.998;56.184;2022-11-12T11:57:14;98435.31;;;3.99;94.42
61113;BME280;47184;57.998;56.184;2022-11-12T12:00:03;98428.69;;;4.13;93.52
61113;BME280;47184;57.998;56.184;2022-11-12T12:05:44;98427.00;;;4.04;93.16
61113;BME280;47184;57.998;56.184;2022-11-12T12:20:26;98401.03;;;3.94;93.12
61113;BME280;47184;57.998;56.184;2022-11-12T12:26:18;98392.59;;;4.08;93.58
61113;BME280;47184;57.998;56.184;2022-11-12T12:29:06;98384.66;;;3.76;93.55
61113;BME280;47184;57.998;56.184;2022-11-12T12:32:04;98384.56;;;4.02;94.02
61113;BME280;47184;57.998;56.184;2022-11-12T12:34:51;98375.03;;;3.84;94.05
61113;BME280;47184;57.998;56.184;2022-11-12T12:37:47;98366.91;;;3.95;93.68
61113;BME280;47184;57.998;56.184;2022-11-12T12:40:38;98359.75;;;3.97;93.90
61113;BME280;47184;57.998;56.184;2022-11-12T12:46:18;98357.94;;;3.98;93.39
61113;BME280;47184;57.998;56.184;2022-11-12T12:49:18;98360.06;;;4.03;92.97
61113;BME280;47184;57.998;56.184;2022-11-12T12:52:05;98350.88;;;3.82;93.88
61113;BME280;47184;57.998;56.184;2022-11-12T12:57:35;98331.84;;;3.98;92.96
61113;BME280;47184;57.998;56.184;2022-11-12T13:00:37;98339.84;;;4.05;93.15
61113;BME280;47184;57.998;56.184;2022-11-12T13:06:32;98325.56;;;3.75;94.01
61113;BME280;47184;57.998;56.184;2022-11-12T13:09:25;98307.81;;;3.86;93.98
61113;BME280;47184;57.998;56.184;2022-11-12T13:12:12;98313.38;;;3.91;93.56
61113;BME280;47184;57.998;56.184;2022-11-12T13:15:10;98304.88;;;3.81;93.59
61113;BME280;47184;57.998;56.184;2022-11-12T13:17:59;98295.75;;;3.85;93.67
61113;BME280;47184;57.998;56.184;2022-11-12T13:23:47;98261.47;;;3.80;93.28
61113;BME280;47184;57.998;56.184;2022-11-12T13:26:51;98284.00;;;3.97;93.48
61113;BME280;47184;57.998;56.184;2022-11-12T13:32:37;98285.28;;;3.85;94.47
61113;BME280;47184;57.998;56.184;2022-11-12T13:35:26;98281.03;;;3.76;94.01
61113;BME280;47184;57.998;56.184;2022-11-12T13:38:11;98271.78;;;3.98;93.89
61113;BME280;47184;57.998;56.184;2022-11-12T13:43:46;98254.78;;;3.86;93.42
61113;BME280;47184;57.998;56.184;2022-11-12T13:46:30;98246.31;;;4.00;93.02
61113;BME280;47184;57.998;56.184;2022-11-12T13:49:16;98248.09;;;4.08;93.07
61113;BME280;47184;57.998;56.184;2022-11-12T13:52:03;98241.44;;;4.13;92.80
61113;BME280;47184;57.998;56.184;2022-11-12T13:54:59;98241.75;;;4.18;92.40
61113;BME280;47184;57.998;56.184;2022-11-12T13:57:48;98243.72;;;4.08;92.71
61113;BME280;47184;57.998;56.184;2022-11-12T14:00:33;98232.59;;;3.98;93.28
61113;BME280;47184;57.998;56.184;2022-11-12T14:03:18;98225.56;;;4.07;93.23
61113;BME280;47184;57.998;56.184;2022-11-12T14:06:05;98227.69;;;4.11;93.82
61113;BME280;47184;57.998;56.184;2022-11-12T14:09:03;98222.47;;;4.19;93.64
61113;BME280;47184;57.998;56.184;2022-11-12T14:11:53;98213.19;;;4.09;93.97
61113;BME280;47184;57.998;56.184;2022-11-12T14:20:35;98201.06;;;4.32;93.34
61113;BME280;47184;57.998;56.184;2022-11-12T14:23:20;98192.28;;;4.25;93.67
61113;BME280;47184;57.998;56.184;2022-11-12T14:26:05;98193.59;;;4.21;93.37
61113;BME280;47184;57.998;56.184;2022-11-12T14:28:54;98177.41;;;4.26;93.37
61113;BME280;47184;57.998;56.184;2022-11-12T14:31:39;98174.94;;;4.32;92.75
61113;BME280;47184;57.998;56.184;2022-11-12T14:34:30;98174.78;;;4.42;92.98
61113;BME280;47184;57.998;56.184;2022-11-12T14:40:34;98161.53;;;4.43;92.80
61113;BME280;47184;57.998;56.184;2022-11-12T14:43:22;98149.25;;;4.52;93.18
61113;BME280;47184;57.998;56.184;2022-11-12T14:46:18;98139.16;;;4.49;92.61
61113;BME280;47184;57.998;56.184;2022-11-12T14:49:15;98118.25;;;4.49;92.25
61113;BME280;47184;57.998;56.184;2022-11-12T14:52:12;98132.41;;;4.63;92.87
61113;BME280;47184;57.998;56.184;2022-11-12T14:55:03;98125.34;;;4.71;92.34
61113;BME280;47184;57.998;56.184;2022-11-12T14:57:49;98116.88;;;4.69;92.32
61113;BME280;47184;57.998;56.184;2022-11-12T15:00:38;98120.34;;;4.62;93.20
61113;BME280;47184;57.998;56.184;2022-11-12T15:03:24;98111.00;;;4.67;92.32
61113;BME280;47184;57.998;56.184;2022-11-12T15:06:09;98106.38;;;4.78;91.96
61113;BME280;47184;57.998;56.184;2022-11-12T15:08:54;98108.50;;;4.82;92.33
61113;BME280;47184;57.998;56.184;2022-11-12T15:11:45;98100.28;;;4.85;92.48
61113;BME280;47184;57.998;56.184;2022-11-12T15:14:30;98092.28;;;4.87;92.09
61113;BME280;47184;57.998;56.184;2022-11-12T15:17:31;98086.63;;;4.75;92.36
61113;BME280;47184;57.998;56.184;2022-11-12T15:20:17;98079.72;;;4.82;92.19
61113;BME280;47184;57.998;56.184;2022-11-12T15:23:02;98080.66;;;4.89;92.23
61113;BME280;47184;57.998;56.184;2022-11-12T15:25:56;98071.06;;;4.82;92.59
61113;BME280;47184;57.998;56.184;2022-11-12T15:28:41;98069.75;;;4.86;92.84
61113;BME280;47184;57.998;56.184;2022-11-12T15:31:47;98064.28;;;4.95;92.85
61113;BME280;47184;57.998;56.184;2022-11-12T15:37:24;98051.53;;;4.92;92.54
61113;BME280;47184;57.998;56.184;2022-11-12T15:40:11;98040.78;;;4.87;92.87
61113;BME280;47184;57.998;56.184;2022-11-12T15:43:02;98036.13;;;4.97;92.49
61113;BME280;47184;57.998;56.184;2022-11-12T15:45:47;98030.97;;;4.89;92.57
61113;BME280;47184;57.998;56.184;2022-11-12T15:48:33;98022.78;;;4.92;92.64
61113;BME280;47184;57.998;56.184;2022-11-12T15:51:17;98001.97;;;4.76;92.36
61113;BME280;47184;57.998;56.184;2022-11-12T15:54:02;98009.66;;;5.01;92.59
61113;BME280;47184;57.998;56.184;2022-11-12T15:56:47;98009.84;;;4.99;92.65
61113;BME280;47184;57.998;56.184;2022-11-12T15:59:32;98001.94;;;5.07;92.17
61113;BME280;47184;57.998;56.184;2022-11-12T16:02:17;98004.47;;;5.15;92.09
61113;BME280;47184;57.998;56.184;2022-11-12T16:05:01;97996.41;;;5.02;92.57
61113;BME280;47184;57.998;56.184;2022-11-12T16:07:46;97996.41;;;5.02;92.43
61113;BME280;47184;57.998;56.184;2022-11-12T16:10:32;97998.72;;;4.97;93.05
61113;BME280;47184;57.998;56.184;2022-11-12T16:13:19;97986.75;;;5.03;92.54
61113;BME280;47184;57.998;56.184;2022-11-12T16:16:06;97984.72;;;5.13;92.53
61113;BME280;47184;57.998;56.184;2022-11-12T16:18:51;97979.81;;;5.10;92.30
61113;BME280;47184;57.998;56.184;2022-11-12T16:21:36;97978.84;;;5.11;92.14
61113;BME280;47184;57.998;56.184;2022-11-12T16:24:21;97973.16;;;5.07;92.42
61113;BME280;47184;57.998;56.184;2022-11-12T16:27:12;97956.66;;;5.07;92.73
61113;BME280;47184;57.998;56.184;2022-11-12T16:29:59;97965.72;;;5.19;92.62